Time;durP1;ratioP1;P1;durP2;ratioP2;P2;SDS_P1;SDS_P2;PMS_P1;PMS_P2;Temp;Humidity;BMP_temperature;BMP_pressure;BME280_temperature;BME280_humidity;BME280_pressure;Samples;Min_cycle;Max_cycle;Signal;HPM_P1;HPM_P2
2022/04/27 00:00:24;;;;;;;10.68;5.35;;;;;;;9.52;72.35;100510.34;5005673;28;20026;-84
2022/04/27 00:02:49;;;;;;;11.35;5.90;;;;;;;9.38;74.07;100507.84;5004049;28;20049;-84
2022/04/27 00:05:14;;;;;;;12.95;8.25;;;;;;;9.48;71.51;100509.16;5005228;28;20138;-84
2022/04/27 00:07:40;;;;;;;10.95;6.72;;;;;;;9.61;72.59;100508.03;5005717;28;20041;-83
2022/04/27 00:10:06;;;;;;;13.60;5.50;;;;;;;9.62;71.70;100504.28;5004479;28;20546;-84
2022/04/27 00:12:34;;;;;;;11.63;6.20;;;;;;;9.22;73.30;100503.94;5005002;28;20584;-84
2022/04/27 00:15:00;;;;;;;11.23;5.72;;;;;;;9.08;73.64;100506.94;5004736;28;20026;-84
2022/04/27 00:17:25;;;;;;;10.52;6.00;;;;;;;9.12;74.59;100510.00;5003864;28;20022;-84
2022/04/27 00:19:50;;;;;;;11.03;5.20;;;;;;;9.01;74.51;100511.63;5005259;28;20045;-83
2022/04/27 00:22:16;;;;;;;12.68;6.82;;;;;;;8.69;75.45;100515.50;5003869;28;20895;-84
2022/04/27 00:24:41;;;;;;;10.25;5.95;;;;;;;9.12;74.76;100512.72;5000699;28;20444;-84
2022/04/27 00:27:06;;;;;;;18.23;6.82;;;;;;;8.92;74.86;100513.91;5004296;28;20029;-83
2022/04/27 00:29:32;;;;;;;11.83;6.47;;;;;;;9.15;74.02;100512.25;5003169;28;20483;-84
2022/04/27 00:31:58;;;;;;;7.95;4.43;;;;;;;9.10;74.91;100506.69;5001464;28;20276;-84
2022/04/27 00:34:23;;;;;;;13.15;6.47;;;;;;;9.22;73.14;100506.69;5003689;28;20320;-84
2022/04/27 00:36:48;;;;;;;10.25;5.40;;;;;;;9.29;73.25;100512.00;5004856;28;20068;-84
2022/04/27 00:39:14;;;;;;;8.67;5.03;;;;;;;9.33;72.09;100518.63;5003835;28;20121;-84
2022/04/27 00:41:58;;;;;;;13.33;7.30;;;;;;;9.06;73.93;100513.66;5004020;28;20310;-83
2022/04/27 00:44:33;;;;;;;13.55;5.80;;;;;;;9.15;73.47;100520.41;5002184;28;20809;-84
2022/04/27 00:47:00;;;;;;;13.70;6.82;;;;;;;9.48;71.39;100520.03;5000745;28;20060;-84
2022/04/27 00:49:26;;;;;;;15.15;6.00;;;;;;;9.30;72.52;100516.38;5004533;28;20148;-84
2022/04/27 00:51:52;;;;;;;9.82;5.13;;;;;;;9.33;71.11;100524.06;5002417;28;20156;-84
2022/04/27 00:54:22;;;;;;;11.10;5.00;;;;;;;9.34;72.11;100517.56;5003117;28;20018;-82
2022/04/27 00:56:48;;;;;;;19.50;6.45;;;;;;;8.88;73.14;100523.59;5003858;28;20400;-84
2022/04/27 00:59:13;;;;;;;11.70;5.78;;;;;;;8.83;74.05;100520.72;5003847;28;20057;-83
2022/04/27 01:01:38;;;;;;;14.40;7.32;;;;;;;8.61;74.62;100524.00;5003253;28;20145;-83
2022/04/27 01:04:05;;;;;;;15.05;7.22;;;;;;;8.65;74.16;100519.75;5002991;28;20349;-83
2022/04/27 01:06:30;;;;;;;14.57;5.82;;;;;;;8.53;75.46;100525.13;5004367;28;20121;-83
2022/04/27 01:08:56;;;;;;;12.70;7.32;;;;;;;8.45;75.56;100526.31;5017801;28;20133;-83
2022/04/27 01:11:21;;;;;;;14.70;6.93;;;;;;;8.45;75.72;100526.31;5001926;28;20053;-84
2022/04/27 01:13:47;;;;;;;11.05;5.97;;;;;;;8.45;74.43;100525.47;5004441;28;20083;-84
2022/04/27 01:16:12;;;;;;;9.07;4.72;;;;;;;8.55;74.72;100531.16;5003153;28;20026;-84
2022/04/27 01:18:38;;;;;;;16.05;7.40;;;;;;;8.59;74.90;100537.00;5003240;28;20057;-83
2022/04/27 01:24:06;;;;;;;15.50;6.50;;;;;;;8.23;75.10;100528.72;4992431;28;20472;-83
2022/04/27 01:26:33;;;;;;;16.42;7.28;;;;;;;8.28;75.51;100531.56;5002563;28;20030;-83
2022/04/27 01:28:59;;;;;;;10.48;5.10;;;;;;;8.46;74.29;100519.78;5003242;28;20157;-84
2022/04/27 01:31:24;;;;;;;10.18;4.93;;;;;;;8.60;73.98;100527.78;5002608;28;20077;-83
2022/04/27 01:33:49;;;;;;;12.63;6.33;;;;;;;8.46;73.43;100527.13;5003140;28;20069;-84
2022/04/27 01:36:15;;;;;;;12.10;6.47;;;;;;;8.32;74.96;100526.50;5001290;28;20295;-84
2022/04/27 01:38:42;;;;;;;8.68;4.70;;;;;;;8.41;73.55;100527.81;5002683;28;20259;-84
2022/04/27 01:41:07;;;;;;;14.18;6.85;;;;;;;8.51;71.81;100538.13;5002802;28;20026;-82
2022/04/27 01:43:34;;;;;;;13.90;6.40;;;;;;;8.63;72.10;100532.75;5002211;28;20025;-82
2022/04/27 01:46:00;;;;;;;11.68;7.03;;;;;;;8.63;72.67;100539.03;5003615;28;20102;-84
2022/04/27 01:48:26;;;;;;;21.45;8.35;;;;;;;8.18;73.50;100543.81;5002943;28;20028;-83
2022/04/27 01:50:52;;;;;;;11.65;6.32;;;;;;;8.34;74.01;100548.84;5002371;28;20057;-84
2022/04/27 01:56:01;;;;;;;14.55;5.57;;;;;;;8.60;71.86;100544.09;5002745;28;20048;-84
2022/04/27 01:58:26;;;;;;;11.60;7.03;;;;;;;8.48;73.10;100553.00;5003865;28;20238;-84
2022/04/27 02:00:52;;;;;;;14.00;5.75;;;;;;;8.36;73.09;100554.88;5001960;28;20422;-84
2022/04/27 02:03:18;;;;;;;13.98;8.05;;;;;;;8.26;73.00;100550.81;5002785;28;20130;-85
2022/04/27 02:05:48;;;;;;;11.40;6.05;;;;;;;8.32;73.66;100551.75;5002057;28;20392;-84
2022/04/27 02:08:14;;;;;;;10.55;5.38;;;;;;;8.48;72.56;100553.00;5002380;28;20032;-84
2022/04/27 02:10:39;;;;;;;15.45;5.63;;;;;;;8.48;72.10;100558.44;5001607;28;20124;-84
2022/04/27 02:13:06;;;;;;;13.80;7.25;;;;;;;8.27;73.19;100557.91;5002740;28;20022;-84
2022/04/27 02:15:32;;;;;;;13.45;7.63;;;;;;;8.43;72.56;100561.03;5007467;28;20030;-84
2022/04/27 02:17:57;;;;;;;13.10;6.97;;;;;;;8.35;72.67;100567.63;5002053;28;20033;-84
2022/04/27 02:20:23;;;;;;;13.10;7.85;;;;;;;8.28;73.46;100564.16;5002574;28;20045;-84
2022/04/27 02:22:49;;;;;;;17.55;7.90;;;;;;;8.12;74.49;100573.75;5001121;28;20030;-84
2022/04/27 02:25:15;;;;;;;11.93;6.60;;;;;;;8.13;74.76;100575.44;5002746;28;20480;-84
2022/04/27 02:27:41;;;;;;;13.93;6.78;;;;;;;8.36;73.23;100571.19;5002456;28;20025;-83
2022/04/27 02:30:08;;;;;;;10.98;6.10;;;;;;;8.47;71.93;100580.41;5002274;28;20494;-84
2022/04/27 02:32:33;;;;;;;15.43;6.95;;;;;;;8.05;74.28;100574.66;5003013;28;20111;-84
2022/04/27 02:34:58;;;;;;;15.23;6.25;;;;;;;8.02;74.43;100572.44;5002092;28;20049;-85
2022/04/27 02:37:24;;;;;;;13.85;6.88;;;;;;;7.63;75.21;100579.97;5003234;28;20465;-84
2022/04/27 02:39:50;;;;;;;15.98;6.95;;;;;;;7.61;76.16;100579.38;5002044;28;20100;-84
2022/04/27 02:42:17;;;;;;;12.40;6.63;;;;;;;7.82;74.87;100581.66;5002346;28;20041;-83
2022/04/27 02:44:44;;;;;;;17.10;6.72;;;;;;;8.05;74.25;100574.66;4999785;28;20112;-85
2022/04/27 02:47:09;;;;;;;10.35;5.57;;;;;;;7.84;75.25;100578.69;5001778;28;20058;-84
2022/04/27 02:52:18;;;;;;;13.30;7.43;;;;;;;7.50;76.30;100581.78;5000501;28;20399;-83
2022/04/27 02:54:44;;;;;;;12.82;7.65;;;;;;;7.71;75.43;100587.81;5000980;28;20029;-83
2022/04/27 02:57:09;;;;;;;12.63;7.60;;;;;;;7.88;75.21;100588.03;5000423;28;20405;-84
2022/04/27 02:59:34;;;;;;;14.80;8.23;;;;;;;7.63;75.20;100596.28;5002697;28;20397;-85
2022/04/27 03:02:00;;;;;;;17.00;8.02;;;;;;;7.85;75.55;100598.53;5001306;28;20026;-83
2022/04/27 03:04:26;;;;;;;12.30;7.03;;;;;;;7.90;74.46;100590.53;5002118;28;20068;-84
2022/04/27 03:09:36;;;;;;;13.38;7.45;;;;;;;7.58;75.48;100594.22;4999809;28;20547;-84
2022/04/27 03:12:01;;;;;;;11.85;6.90;;;;;;;7.76;75.40;100596.13;5002266;28;20390;-83
2022/04/27 03:14:28;;;;;;;12.70;6.88;;;;;;;7.89;74.29;100603.28;5001964;28;20493;-84
2022/04/27 03:16:54;;;;;;;14.43;6.05;;;;;;;7.84;74.11;100603.13;5002321;28;20116;-83
2022/04/27 03:19:20;;;;;;;24.85;7.60;;;;;;;7.96;73.37;100600.50;5005056;28;20053;-84
2022/04/27 03:21:46;;;;;;;13.20;6.18;;;;;;;7.82;74.50;100603.38;5005363;28;20439;-84
2022/04/27 03:24:12;;;;;;;15.00;8.70;;;;;;;7.71;74.52;100604.09;5006129;28;20461;-83
2022/04/27 03:26:37;;;;;;;10.63;7.30;;;;;;;7.83;74.21;100607.72;5005344;28;20022;-84
2022/04/27 03:29:03;;;;;;;17.23;7.65;;;;;;;7.76;74.25;100606.97;5005784;28;20100;-83
2022/04/27 03:31:29;;;;;;;20.38;9.45;;;;;;;7.50;74.90;100603.47;5004813;28;20030;-84
2022/04/27 03:33:54;;;;;;;14.50;7.72;;;;;;;7.64;75.42;100604.19;5004362;28;20322;-84
2022/04/27 03:36:19;;;;;;;13.40;7.80;;;;;;;7.86;73.80;100600.19;5003625;28;20024;-84
2022/04/27 03:38:48;;;;;;;15.65;8.90;;;;;;;7.89;73.49;100608.69;5005770;28;20022;-83
2022/04/27 03:41:14;;;;;;;17.33;7.63;;;;;;;7.47;74.73;100609.34;5003517;28;20029;-83
2022/04/27 03:43:40;;;;;;;13.90;7.57;;;;;;;7.42;75.40;100611.91;5004806;28;20030;-83
2022/04/27 03:46:05;;;;;;;18.45;9.02;;;;;;;7.57;75.22;100606.94;5005630;28;20060;-83
2022/04/27 03:48:30;;;;;;;17.42;7.45;;;;;;;7.49;75.23;100607.22;5004020;28;20022;-83
2022/04/27 03:50:56;;;;;;;19.77;8.77;;;;;;;7.52;76.19;100612.22;5005218;28;20018;-82
2022/04/27 03:53:21;;;;;;;13.07;7.50;;;;;;;7.64;75.85;100619.63;5004394;28;20349;-83
2022/04/27 03:55:46;;;;;;;18.17;8.67;;;;;;;7.76;75.30;100625.16;5004790;28;20936;-83
2022/04/27 04:00:56;;;;;;;;;;;;;;;7.86;75.48;100632.75;5006240;28;20263;-82
2022/04/27 04:03:21;;;;;;;14.73;7.67;;;;;;;8.11;74.43;100629.16;5002811;28;19917;-83
2022/04/27 04:05:46;;;;;;;17.83;10.32;;;;;;;7.75;75.60;100637.06;5004220;28;20268;-83
2022/04/27 04:08:12;;;;;;;13.05;8.27;;;;;;;7.48;76.51;100628.09;5005092;28;20112;-82
2022/04/27 04:10:37;;;;;;;16.77;8.97;;;;;;;7.28;76.59;100631.00;5003559;28;20061;-83
2022/04/27 04:13:02;;;;;;;20.03;9.80;;;;;;;7.20;77.64;100626.69;5004534;28;20365;-80
2022/04/27 04:15:28;;;;;;;25.63;9.48;;;;;;;7.46;77.31;100627.50;5004150;28;20263;-82
2022/04/27 04:17:54;;;;;;;14.75;8.88;;;;;;;7.42;77.50;100641.75;5004205;28;20068;-83
2022/04/27 04:20:20;;;;;;;19.35;9.95;;;;;;;7.38;77.49;100633.22;5004272;28;20041;-83
2022/04/27 04:22:47;;;;;;;14.88;9.45;;;;;;;7.42;77.04;100636.31;5004034;28;20022;-83
2022/04/27 04:30:41;;;;;;;14.55;7.10;;;;;;;7.58;76.36;100659.34;5003281;28;20100;-82
2022/04/27 04:33:06;;;;;;;15.30;7.60;;;;;;;7.39;77.62;100659.28;5003652;28;20064;-84
2022/04/27 04:35:33;;;;;;;13.45;8.63;;;;;;;7.58;76.28;100668.34;5004549;28;20079;-83
2022/04/27 04:37:58;;;;;;;19.80;9.25;;;;;;;7.47;76.13;100674.47;5004684;28;20047;-83
2022/04/27 04:40:23;;;;;;;17.05;8.45;;;;;;;7.50;76.81;100673.19;5003525;28;20522;-83
2022/04/27 04:42:48;;;;;;;15.75;9.93;;;;;;;7.70;76.42;100678.44;5003973;28;20029;-83
2022/04/27 04:45:14;;;;;;;15.07;9.77;;;;;;;7.69;75.58;100682.19;5003116;28;20026;-83
2022/04/27 04:47:42;;;;;;;18.40;9.73;;;;;;;7.57;75.90;100677.50;5003653;28;20025;-83
2022/04/27 04:50:08;;;;;;;18.20;9.65;;;;;;;7.39;76.41;100678.28;5001944;28;20026;-83
2022/04/27 04:52:33;;;;;;;20.67;10.35;;;;;;;7.35;77.74;100688.75;5003535;28;20037;-82
2022/04/27 04:54:58;;;;;;;19.40;11.20;;;;;;;7.09;77.89;100685.19;5004181;28;20026;-83
2022/04/27 04:57:24;;;;;;;18.87;10.30;;;;;;;6.93;77.80;100691.97;5003415;28;20272;-83
2022/04/27 04:59:50;;;;;;;17.10;9.27;;;;;;;7.14;77.41;100681.00;5003693;28;20263;-83
2022/04/27 05:02:15;;;;;;;22.75;13.13;;;;;;;7.06;78.00;100684.81;5018173;28;20260;-83
2022/04/27 05:04:40;;;;;;;21.73;10.70;;;;;;;7.65;76.29;100679.09;5004047;28;20500;-82
2022/04/27 05:07:06;;;;;;;16.17;8.77;;;;;;;7.58;76.44;100687.31;5003469;28;20264;-83
2022/04/27 05:09:31;;;;;;;19.92;11.05;;;;;;;6.78;78.88;100692.25;5003567;28;20274;-83
2022/04/27 05:12:10;;;;;;;32.55;13.05;;;;;;;6.86;79.41;100696.56;5003256;28;20520;-83
2022/04/27 05:14:35;;;;;;;28.90;11.02;;;;;;;7.01;79.21;100693.56;5001591;28;20459;-83
2022/04/27 05:17:00;;;;;;;16.55;9.30;;;;;;;7.26;78.86;100700.91;5004282;28;20156;-83
2022/04/27 05:19:26;;;;;;;18.77;9.13;;;;;;;7.51;78.30;100708.25;5003191;28;20022;-84
2022/04/27 05:21:51;;;;;;;18.60;10.25;;;;;;;7.89;77.26;100705.63;5003259;28;20030;-83
2022/04/27 05:24:16;;;;;;;21.13;10.30;;;;;;;7.98;75.80;100709.72;5003309;28;20457;-82
2022/04/27 05:26:42;;;;;;;16.77;10.43;;;;;;;8.13;75.61;100717.53;5002394;28;20064;-82
2022/04/27 05:31:54;;;;;;;37.00;11.10;;;;;;;8.08;76.50;100728.22;5002285;28;20298;-82
2022/04/27 05:34:19;;;;;;;18.38;10.32;;;;;;;8.26;75.31;100721.97;5003349;28;20084;-83
2022/04/27 05:36:45;;;;;;;21.85;11.43;;;;;;;8.32;73.78;100717.50;5003336;28;20033;-83
2022/04/27 05:39:10;;;;;;;21.67;9.68;;;;;;;8.45;74.01;100726.56;5002812;28;20669;-83
2022/04/27 05:41:35;;;;;;;18.90;10.48;;;;;;;8.34;74.86;100728.97;5002076;28;20040;-83
2022/04/27 05:44:07;;;;;;;36.97;11.68;;;;;;;8.38;74.89;100732.09;5000952;28;20030;-83
2022/04/27 05:46:34;;;;;;;14.10;9.32;;;;;;;8.68;74.07;100731.38;5002759;28;20080;-83
2022/04/27 05:49:00;;;;;;;26.02;10.93;;;;;;;8.75;73.32;100732.09;5002434;28;20041;-83
2022/04/27 05:51:25;;;;;;;23.70;11.55;;;;;;;8.58;74.94;100744.66;5017629;28;20038;-83
2022/04/27 05:53:50;;;;;;;17.87;10.53;;;;;;;8.47;75.10;100736.16;5002413;28;20053;-83
2022/04/27 05:56:15;;;;;;;18.00;10.27;;;;;;;8.58;73.49;100741.94;5002573;28;20280;-83
2022/04/27 05:58:41;;;;;;;18.07;10.57;;;;;;;8.58;73.71;100742.78;5000939;28;20290;-83
2022/04/27 06:01:06;;;;;;;21.63;10.17;;;;;;;8.87;72.76;100753.06;5001811;28;20509;-83
2022/04/27 06:03:34;;;;;;;15.73;8.85;;;;;;;8.99;72.10;100758.56;5003158;28;20274;-83
2022/04/27 06:05:59;;;;;;;22.42;10.02;;;;;;;8.99;72.50;100753.97;5002518;28;20038;-82
2022/04/27 06:08:24;;;;;;;20.10;9.90;;;;;;;8.98;73.19;100760.47;5002627;28;20483;-84
2022/04/27 06:10:50;;;;;;;23.73;11.95;;;;;;;9.02;72.26;100760.00;5001517;28;20296;-83
2022/04/27 06:13:15;;;;;;;20.05;9.60;;;;;;;9.23;71.96;100758.69;5002709;28;20036;-82
2022/04/27 06:15:41;;;;;;;22.40;10.65;;;;;;;9.13;72.39;100763.84;5003534;28;20041;-83
2022/04/27 06:18:06;;;;;;;21.20;12.48;;;;;;;9.16;71.65;100763.38;5002090;28;20489;-83
2022/04/27 06:23:15;;;;;;;24.50;12.98;;;;;;;9.16;71.90;100756.03;4998426;28;20274;-83
2022/04/27 06:25:41;;;;;;;20.75;9.25;;;;;;;8.75;71.65;100763.88;5002289;28;20038;-83
2022/04/27 06:28:07;;;;;;;15.32;7.25;;;;;;;8.89;71.15;100770.00;5001940;28;20030;-83
2022/04/27 06:30:35;;;;;;;15.15;9.13;;;;;;;8.91;71.69;100764.34;5016839;28;20034;-82
2022/04/27 06:33:00;;;;;;;15.02;8.60;;;;;;;8.85;71.34;100771.50;5001345;28;20041;-83
2022/04/27 06:35:26;;;;;;;14.13;8.27;;;;;;;8.82;71.32;100771.97;5001720;28;20030;-83
2022/04/27 06:37:51;;;;;;;16.48;9.25;;;;;;;8.70;72.13;100772.75;5001858;28;20018;-81
2022/04/27 06:40:17;;;;;;;17.50;8.82;;;;;;;8.86;72.24;100770.47;5001782;28;20018;-83
2022/04/27 06:42:42;;;;;;;15.98;8.85;;;;;;;9.04;71.80;100766.03;5001885;28;20088;-82
2022/04/27 06:45:09;;;;;;;15.90;7.85;;;;;;;9.20;70.76;100770.00;5001741;28;20433;-83
2022/04/27 06:47:34;;;;;;;15.05;8.38;;;;;;;9.29;69.43;100773.25;5001348;28;20333;-83
2022/04/27 06:49:59;;;;;;;17.92;9.80;;;;;;;9.37;70.39;100772.09;5000733;28;20022;-82
2022/04/27 06:52:25;;;;;;;15.33;8.90;;;;;;;9.44;69.79;100776.34;5002103;28;20030;-83
2022/04/27 06:54:50;;;;;;;18.98;10.48;;;;;;;9.43;69.13;100772.00;5004897;28;20267;-82
2022/04/27 06:57:15;;;;;;;16.80;8.97;;;;;;;9.38;69.92;100779.16;5004712;28;20083;-83
2022/04/27 07:02:25;;;;;;;18.70;9.27;;;;;;;9.37;69.62;100781.09;5003921;28;20157;-83
2022/04/27 07:04:55;;;;;;;18.95;8.38;;;;;;;9.46;69.88;100779.69;5004707;28;20116;-83
2022/04/27 07:07:21;;;;;;;14.48;7.93;;;;;;;9.51;67.95;100791.75;5005620;28;20384;-84
2022/04/27 07:09:46;;;;;;;15.23;7.43;;;;;;;9.52;67.56;100777.09;5005136;28;20099;-83
2022/04/27 07:12:13;;;;;;;17.08;8.88;;;;;;;9.59;67.93;100788.72;5004767;28;20072;-82
2022/04/27 07:14:38;;;;;;;15.88;8.90;;;;;;;9.60;68.20;100787.63;5005473;28;20413;-82
2022/04/27 07:17:04;;;;;;;16.45;9.82;;;;;;;9.59;67.51;100791.44;5005036;28;20017;-83
2022/04/27 07:19:29;;;;;;;18.98;8.50;;;;;;;9.65;67.19;100785.06;5005625;28;20424;-83
2022/04/27 07:21:54;;;;;;;22.23;8.13;;;;;;;9.91;67.09;100785.69;5005518;28;20021;-83
2022/04/27 07:24:20;;;;;;;15.20;7.97;;;;;;;9.92;66.39;100795.53;5004893;28;20371;-83
2022/04/27 07:26:46;;;;;;;19.75;9.35;;;;;;;9.70;66.16;100800.72;5004052;28;20271;-82
2022/04/27 07:29:11;;;;;;;14.10;7.97;;;;;;;9.88;66.19;100791.63;5004404;28;20013;-83
2022/04/27 07:31:37;;;;;;;13.48;6.18;;;;;;;9.86;65.36;100795.63;5004418;28;20096;-82
2022/04/27 07:34:02;;;;;;;15.40;7.18;;;;;;;10.09;65.52;100785.84;5005444;28;20030;-82
2022/04/27 07:36:27;;;;;;;17.03;8.37;;;;;;;10.07;65.03;100796.13;5002959;28;20032;-82
2022/04/27 07:38:53;;;;;;;17.27;7.70;;;;;;;10.14;65.25;100796.84;5004466;28;20255;-83
2022/04/27 07:41:18;;;;;;;11.25;6.50;;;;;;;10.25;64.41;100797.91;5004364;28;20108;-82
2022/04/27 07:43:43;;;;;;;12.73;7.13;;;;;;;10.19;64.27;100802.41;5004810;28;20028;-83
2022/04/27 07:46:11;;;;;;;12.23;6.53;;;;;;;10.12;64.04;100804.41;5017991;28;20321;-83
2022/04/27 07:48:36;;;;;;;12.63;5.95;;;;;;;10.24;63.80;100793.53;5004490;28;20033;-82
2022/04/27 07:51:06;;;;;;;12.75;5.45;;;;;;;10.22;63.62;100795.66;5004190;28;20034;-81
2022/04/27 07:53:31;;;;;;;12.82;6.53;;;;;;;10.07;62.87;100807.03;5001901;28;20500;-81
2022/04/27 07:55:56;;;;;;;15.13;5.97;;;;;;;10.20;63.19;100804.06;5003389;28;20018;-83
2022/04/27 07:58:22;;;;;;;14.77;6.85;;;;;;;10.01;62.45;100803.34;5003678;28;20022;-83
2022/04/27 08:00:47;;;;;;;17.13;7.43;;;;;;;10.19;63.68;100807.84;5004460;28;20038;-83
2022/04/27 08:03:13;;;;;;;11.93;6.70;;;;;;;10.43;62.75;100812.47;5003233;28;20289;-82
2022/04/27 08:05:38;;;;;;;10.07;6.50;;;;;;;10.37;62.88;100809.63;5004873;28;20069;-83
2022/04/27 08:08:05;;;;;;;25.38;9.48;;;;;;;10.38;62.66;100814.03;5004587;28;20469;-83
2022/04/27 08:10:31;;;;;;;12.00;5.88;;;;;;;10.50;62.49;100810.47;5003802;28;20522;-83
2022/04/27 08:12:56;;;;;;;10.30;4.85;;;;;;;10.27;61.86;100809.41;5004598;28;20030;-83
2022/04/27 08:15:24;;;;;;;13.43;5.63;;;;;;;10.45;62.05;100815.81;5004635;28;20022;-84
2022/04/27 08:18:00;;;;;;;16.17;6.35;;;;;;;10.57;63.26;100811.19;5004351;28;20598;-83
2022/04/27 08:23:13;;;;;;;11.98;6.82;;;;;;;10.75;62.09;100825.75;5003647;28;20037;-82
2022/04/27 08:25:39;;;;;;;14.48;6.65;;;;;;;10.73;62.17;100822.44;5004168;28;20076;-83
2022/04/27 08:28:06;;;;;;;13.60;4.88;;;;;;;10.81;61.98;100830.25;5004167;28;20165;-83
2022/04/27 08:30:36;;;;;;;10.77;5.20;;;;;;;10.93;62.24;100826.66;5001308;28;20030;-84
2022/04/27 08:33:03;;;;;;;10.00;5.30;;;;;;;11.00;61.77;100818.34;5004536;28;20049;-83
2022/04/27 08:35:29;;;;;;;11.45;5.10;;;;;;;11.05;62.36;100829.34;5004372;28;20109;-83
2022/04/27 08:37:54;;;;;;;17.73;6.30;;;;;;;11.13;61.91;100836.31;5003753;28;20018;-83
2022/04/27 08:40:20;;;;;;;10.23;5.40;;;;;;;11.14;61.35;100832.53;5003798;28;20029;-83
2022/04/27 08:42:47;;;;;;;11.25;5.88;;;;;;;11.10;60.31;100840.38;5004115;28;20064;-83
2022/04/27 08:45:13;;;;;;;25.10;7.03;;;;;;;11.24;61.14;100838.19;5003789;28;20033;-84
2022/04/27 08:47:38;;;;;;;19.95;6.05;;;;;;;11.42;60.82;100841.81;5003410;28;20029;-84
2022/04/27 08:50:14;;;;;;;10.40;5.88;;;;;;;11.46;60.50;100834.78;5003084;28;20014;-83
2022/04/27 08:52:41;;;;;;;14.48;5.43;;;;;;;11.48;60.52;100840.84;5002666;28;20030;-84
2022/04/27 08:55:10;;;;;;;26.38;6.30;;;;;;;11.49;59.24;100839.75;5003730;28;20200;-84
2022/04/27 08:57:36;;;;;;;10.13;5.38;;;;;;;11.55;59.41;100837.97;5004207;28;20080;-83
2022/04/27 09:00:04;;;;;;;12.45;6.82;;;;;;;11.61;59.62;100850.63;5003431;28;20645;-84
2022/04/27 09:05:33;;;;;;;11.00;6.13;;;;;;;11.85;59.52;100852.41;5000230;28;20060;-84
2022/04/27 09:07:59;;;;;;;15.75;7.68;;;;;;;11.96;57.75;100851.50;5003887;28;20022;-83
2022/04/27 09:10:25;;;;;;;9.18;4.78;;;;;;;11.97;57.57;100841.41;5003051;28;20042;-84
2022/04/27 09:12:51;;;;;;;18.38;7.47;;;;;;;11.93;58.36;100838.34;5003686;28;20400;-84
2022/04/27 09:21:04;;;;;;;12.15;6.28;;;;;;;11.85;55.28;100846.94;5002911;28;20091;-84
2022/04/27 09:23:39;;;;;;;12.27;6.22;;;;;;;12.14;56.71;100844.19;5003415;28;20034;-84
2022/04/27 09:26:15;;;;;;;14.68;6.15;;;;;;;12.35;55.91;100849.94;5001943;28;20481;-84
2022/04/27 09:28:46;;;;;;;10.65;5.65;;;;;;;12.21;54.67;100844.81;5001460;28;20026;-83
2022/04/27 09:31:31;;;;;;;13.60;7.10;;;;;;;12.14;55.57;100849.66;5002946;28;20488;-83
2022/04/27 09:34:01;;;;;;;11.80;6.72;;;;;;;12.13;55.27;100854.28;5001347;28;20471;-85
2022/04/27 09:36:27;;;;;;;13.55;7.35;;;;;;;12.41;54.84;100848.13;5003047;28;20157;-85
2022/04/27 09:38:54;;;;;;;13.93;5.82;;;;;;;12.51;54.19;100848.25;4999765;28;20105;-83
2022/04/27 09:41:40;;;;;;;10.32;5.97;;;;;;;12.31;53.83;100848.78;5002564;28;20022;-84
2022/04/27 09:44:05;;;;;;;11.60;6.22;;;;;;;12.61;55.63;100837.47;5002236;28;20018;-84
2022/04/27 09:46:31;;;;;;;10.82;5.20;;;;;;;12.67;54.97;100835.63;5000893;28;20370;-84
2022/04/27 09:49:09;;;;;;;14.18;7.45;;;;;;;12.92;55.33;100848.00;5003117;28;20026;-83
2022/04/27 09:51:47;;;;;;;9.15;5.05;;;;;;;13.02;56.04;100841.81;4999756;28;20033;-84
2022/04/27 09:54:37;;;;;;;12.48;5.63;;;;;;;12.92;54.94;100847.16;5000900;28;20034;-84
2022/04/27 09:57:09;;;;;;;11.40;5.88;;;;;;;12.73;52.95;100850.22;5001704;28;20013;-83
2022/04/27 09:59:36;;;;;;;10.02;5.60;;;;;;;12.81;53.92;100840.75;5002618;28;20116;-83
2022/04/27 10:02:07;;;;;;;11.20;6.05;;;;;;;13.15;53.74;100840.63;5001847;28;20014;-84
2022/04/27 10:04:33;;;;;;;14.35;6.10;;;;;;;13.37;53.29;100836.19;5002494;28;20484;-84
2022/04/27 10:07:01;;;;;;;9.65;5.53;;;;;;;13.42;53.07;100839.00;5002337;28;20159;-83
2022/04/27 10:09:28;;;;;;;12.02;6.95;;;;;;;13.57;52.43;100840.25;5002022;28;20049;-84
2022/04/27 10:11:55;;;;;;;12.63;7.93;;;;;;;13.41;52.88;100838.16;5002136;28;20032;-83
2022/04/27 10:14:21;;;;;;;15.57;7.38;;;;;;;13.38;51.02;100838.66;5002830;28;20054;-84
2022/04/27 10:16:48;;;;;;;13.32;6.88;;;;;;;13.62;51.54;100837.56;5002090;28;20088;-84
2022/04/27 10:19:16;;;;;;;22.23;7.40;;;;;;;13.52;51.59;100832.78;4999597;28;20050;-83
2022/04/27 10:21:55;;;;;;;11.75;6.97;;;;;;;13.79;51.55;100834.72;5001266;28;20092;-84
2022/04/27 10:24:46;;;;;;;19.52;8.70;;;;;;;13.88;50.78;100833.16;5000371;28;20034;-84
2022/04/27 10:27:21;;;;;;;15.05;7.18;;;;;;;13.58;51.04;100820.00;5003077;28;20432;-83
2022/04/27 10:30:13;;;;;;;13.73;7.40;;;;;;;13.85;52.61;100825.44;5006603;28;20034;-83
2022/04/27 10:32:45;;;;;;;14.07;7.55;;;;;;;13.87;51.43;100827.94;4998957;28;20341;-83
2022/04/27 10:35:25;;;;;;;14.95;7.05;;;;;;;13.99;52.05;100828.56;5006038;28;20392;-83
2022/04/27 10:38:02;;;;;;;14.80;9.10;;;;;;;14.19;51.62;100823.53;5006263;28;20022;-83
2022/04/27 10:40:31;;;;;;;14.00;6.70;;;;;;;14.33;51.04;100819.22;5005906;28;20370;-83
2022/04/27 10:43:05;;;;;;;11.48;6.32;;;;;;;14.52;51.49;100824.25;5003441;28;20022;-84
2022/04/27 10:45:31;;;;;;;14.82;8.43;;;;;;;14.49;52.07;100827.56;5006175;28;20068;-83
2022/04/27 10:47:57;;;;;;;18.00;6.75;;;;;;;14.41;50.79;100837.09;5005406;28;20338;-83
2022/04/27 10:50:25;;;;;;;14.75;7.50;;;;;;;14.53;50.40;100827.84;5004669;28;20077;-83
2022/04/27 10:52:53;;;;;;;10.20;6.68;;;;;;;14.63;49.48;100829.81;5004179;28;20038;-83
2022/04/27 10:55:40;;;;;;;12.68;8.00;;;;;;;14.58;49.27;100830.63;5004425;28;20038;-83
2022/04/27 10:58:16;;;;;;;11.20;6.32;;;;;;;14.78;49.76;100829.06;5003468;28;20084;-84
2022/04/27 11:01:01;;;;;;;14.90;7.47;;;;;;;14.81;49.90;100823.88;5002687;28;20040;-82
2022/04/27 11:03:27;;;;;;;13.98;9.32;;;;;;;14.93;49.97;100822.84;5002557;28;20033;-84
2022/04/27 11:05:56;;;;;;;19.88;8.15;;;;;;;14.79;49.04;100820.56;5005465;28;20021;-83
2022/04/27 11:11:31;;;;;;;16.77;9.02;;;;;;;14.94;48.14;100828.09;5000683;28;20104;-82
2022/04/27 11:14:01;;;;;;;12.98;7.63;;;;;;;15.09;48.32;100823.75;5005844;28;20116;-83
2022/04/27 11:16:26;;;;;;;10.48;6.88;;;;;;;15.23;48.40;100835.06;5004470;28;20030;-83
2022/04/27 11:18:57;;;;;;;16.35;8.07;;;;;;;15.28;47.43;100826.81;5005027;28;20032;-83
2022/04/27 11:21:30;;;;;;;13.90;7.57;;;;;;;14.75;46.07;100818.63;5004742;28;20021;-83
2022/04/27 11:24:00;;;;;;;12.80;7.85;;;;;;;15.00;48.36;100820.69;5002154;28;20040;-83
2022/04/27 11:26:25;;;;;;;15.10;7.55;;;;;;;15.02;46.06;100824.00;5004303;28;20528;-82
2022/04/27 11:28:53;;;;;;;12.57;7.35;;;;;;;15.09;47.54;100820.16;5004655;28;20029;-83
2022/04/27 11:31:19;;;;;;;13.93;8.95;;;;;;;15.26;47.48;100834.50;5003702;28;20033;-83
2022/04/27 11:33:45;;;;;;;12.80;7.75;;;;;;;15.42;45.81;100830.97;5004512;28;20056;-82
2022/04/27 11:36:21;;;;;;;12.68;8.18;;;;;;;15.54;47.61;100827.97;5003562;28;20504;-82
2022/04/27 11:38:47;;;;;;;18.65;8.50;;;;;;;14.80;45.19;100824.16;5001597;28;20419;-82
2022/04/27 11:41:35;;;;;;;11.48;6.75;;;;;;;15.08;45.00;100821.25;5003862;28;20381;-83
2022/04/27 11:44:01;;;;;;;13.73;7.70;;;;;;;15.39;45.64;100821.34;5004688;28;20465;-83
2022/04/27 11:46:36;;;;;;;12.30;7.40;;;;;;;15.36;45.93;100824.63;5004221;28;20141;-83
2022/04/27 11:49:01;;;;;;;16.10;6.97;;;;;;;15.71;46.06;100823.03;5002929;28;20408;-82
2022/04/27 11:51:26;;;;;;;11.77;7.60;;;;;;;15.99;46.77;100820.84;5003361;28;20025;-82
2022/04/27 11:53:52;;;;;;;9.98;5.75;;;;;;;15.57;46.86;100819.16;5004645;28;20307;-82
2022/04/27 11:56:18;;;;;;;16.80;7.90;;;;;;;14.93;46.00;100815.44;5004337;28;20101;-83
2022/04/27 11:58:45;;;;;;;13.02;7.10;;;;;;;15.13;45.40;100813.03;5003342;28;20033;-83
2022/04/27 12:01:11;;;;;;;17.50;8.38;;;;;;;15.74;45.74;100827.19;5003246;28;20030;-83
2022/04/27 12:03:41;;;;;;;12.38;7.50;;;;;;;15.72;44.90;100815.63;5003918;28;20122;-82